Time;durP1;ratioP1;P1;durP2;ratioP2;P2;SDS_P1;SDS_P2;PMS_P1;PMS_P2;Temp;Humidity;BMP_temperature;BMP_pressure;BME280_temperature;BME280_humidity;BME280_pressure;Samples;Min_cycle;Max_cycle;Signal;HPM_P1;HPM_P2
2022/05/14 00:00:33;;;;;;;2.20;2.00;;;;;;;23.04;49.04;99262.01;1791922;78;20998;-68
2022/05/14 00:03:01;;;;;;;2.33;2.12;;;;;;;23.03;49.04;99260.39;1782554;80;21065;-67
2022/05/14 00:05:27;;;;;;;2.02;1.92;;;;;;;23.02;49.08;99254.66;1782528;80;21542;-68
2022/05/14 00:07:54;;;;;;;2.20;2.00;;;;;;;23.02;49.05;99250.59;1782632;80;21065;-67
2022/05/14 00:10:22;;;;;;;2.02;1.70;;;;;;;23.02;49.02;99254.66;1782509;80;21146;-68
2022/05/14 00:13:05;;;;;;;2.02;1.90;;;;;;;23.01;49.03;99248.17;1782493;79;21095;-67
2022/05/14 00:15:39;;;;;;;2.20;2.00;;;;;;;23.00;49.06;99242.46;1782648;80;21038;-67
2022/05/14 00:18:07;;;;;;;1.77;1.67;;;;;;;23.00;49.04;99245.17;1812157;79;20987;-67
2022/05/14 00:20:36;;;;;;;2.12;1.90;;;;;;;22.99;49.08;99246.27;1814539;78;20998;-67
2022/05/14 00:23:04;;;;;;;1.98;1.87;;;;;;;22.96;49.08;99240.27;1814621;78;21132;-68
2022/05/14 00:25:30;;;;;;;2.15;1.82;;;;;;;22.97;49.05;99241.91;1814415;79;21064;-68
2022/05/14 00:27:57;;;;;;;3.02;2.22;;;;;;;22.96;49.05;99234.04;1814659;79;20998;-68
2022/05/14 00:30:26;;;;;;;2.17;1.98;;;;;;;22.95;49.06;99227.01;1814520;79;21416;-68
2022/05/14 00:32:53;;;;;;;2.47;2.10;;;;;;;22.95;49.05;99230.52;1813778;79;21506;-67
2022/05/14 00:35:20;;;;;;;2.40;2.20;;;;;;;22.94;49.04;99226.72;1782587;80;21136;-68
2022/05/14 00:37:47;;;;;;;2.00;1.80;;;;;;;22.94;49.03;99230.78;1782551;80;21447;-68
2022/05/14 00:40:27;;;;;;;2.00;1.90;;;;;;;22.92;49.02;99228.33;1782461;79;21057;-67
2022/05/14 00:42:54;;;;;;;2.30;2.10;;;;;;;22.92;49.02;99220.20;1785398;80;21407;-67
2022/05/14 00:45:21;;;;;;;2.30;2.00;;;;;;;22.92;49.05;99216.14;1793572;80;21001;-67
2022/05/14 00:47:54;;;;;;;2.30;2.10;;;;;;;22.91;49.05;99215.07;1793615;80;21138;-67
2022/05/14 00:50:51;;;;;;;2.30;2.10;;;;;;;22.90;49.05;99217.48;1794700;78;21005;-68
2022/05/14 00:53:22;;;;;;;2.42;1.90;;;;;;;22.90;49.05;99216.13;1793710;80;21041;-67
2022/05/14 00:55:52;;;;;;;2.08;1.87;;;;;;;22.88;49.09;99214.23;1793402;79;20998;-68
2022/05/14 00:58:27;;;;;;;2.15;1.90;;;;;;;22.87;49.08;99214.77;1793984;80;21019;-67
2022/05/14 01:00:54;;;;;;;2.00;1.90;;;;;;;22.87;49.08;99216.64;1775445;80;21156;-68
2022/05/14 01:03:21;;;;;;;2.25;2.05;;;;;;;22.85;49.10;99214.73;1793472;80;21072;-68
2022/05/14 01:05:51;;;;;;;1.80;1.70;;;;;;;22.84;49.16;99205.80;1793624;79;21013;-67
2022/05/14 01:08:18;;;;;;;2.20;2.00;;;;;;;22.82;49.13;99206.61;1794617;78;21021;-67
2022/05/14 01:10:45;;;;;;;2.17;2.00;;;;;;;22.82;49.10;99209.31;1793588;80;21014;-68
2022/05/14 01:13:12;;;;;;;1.92;1.82;;;;;;;22.83;49.13;99207.41;1793595;80;21128;-68
2022/05/14 01:15:56;;;;;;;1.85;1.72;;;;;;;22.82;49.13;99210.67;1793564;79;21481;-67
2022/05/14 01:18:26;;;;;;;2.30;2.10;;;;;;;22.81;49.11;99202.25;1793684;80;21118;-68
2022/05/14 01:21:07;;;;;;;2.00;1.90;;;;;;;22.80;49.12;99199.28;1793555;80;20989;-67
2022/05/14 01:26:29;;;;;;;2.77;2.40;;;;;;;22.78;49.15;99195.48;1793681;80;21142;-68
2022/05/14 01:29:10;;;;;;;2.30;2.05;;;;;;;22.76;49.14;99194.13;1793429;79;21037;-68
2022/05/14 01:31:37;;;;;;;1.85;1.75;;;;;;;22.74;49.18;99191.67;1793490;79;21450;-68
2022/05/14 01:34:09;;;;;;;2.37;1.95;;;;;;;22.74;49.17;99186.80;1793565;80;21021;-67
2022/05/14 01:36:37;;;;;;;2.10;1.98;;;;;;;22.73;49.18;99190.02;1793529;80;21005;-67
2022/05/14 01:39:04;;;;;;;2.35;1.85;;;;;;;22.72;49.17;99187.60;1793551;80;21134;-67
2022/05/14 01:41:30;;;;;;;1.95;1.85;;;;;;;22.71;49.19;99189.47;1802111;78;20993;-68
2022/05/14 01:43:57;;;;;;;2.83;2.08;;;;;;;22.71;49.21;99190.02;1826114;78;21499;-67
2022/05/14 01:46:24;;;;;;;2.22;2.02;;;;;;;22.70;49.20;99191.92;1826011;78;20990;-68
2022/05/14 01:48:51;;;;;;;2.58;2.37;;;;;;;22.70;49.23;99191.92;1826065;78;21498;-67
2022/05/14 01:51:18;;;;;;;1.98;1.77;;;;;;;22.70;49.20;99195.17;1826377;78;21078;-67
2022/05/14 01:53:45;;;;;;;1.92;1.82;;;;;;;22.69;49.21;99190.82;1825882;78;21045;-67
2022/05/14 01:56:12;;;;;;;2.42;2.22;;;;;;;22.69;49.21;99196.23;1825990;78;20974;-67
2022/05/14 01:58:38;;;;;;;1.92;1.80;;;;;;;22.68;49.20;99190.02;1824730;78;21080;-68
2022/05/14 02:01:19;;;;;;;2.58;2.37;;;;;;;22.67;49.22;99189.72;1825247;78;21061;-67
2022/05/14 02:03:53;;;;;;;2.60;2.12;;;;;;;22.67;49.25;99187.56;1826395;78;21073;-67
2022/05/14 02:06:21;;;;;;;1.65;1.55;;;;;;;22.66;49.23;99184.59;1826019;78;21060;-68
2022/05/14 02:08:49;;;;;;;2.67;2.30;;;;;;;22.66;49.23;99179.17;1825950;78;21006;-68
2022/05/14 02:11:16;;;;;;;1.98;1.77;;;;;;;22.64;49.24;99182.66;1825966;78;21161;-68
2022/05/14 02:13:43;;;;;;;1.95;1.77;;;;;;;22.65;49.24;99180.24;1825973;78;21084;-68
2022/05/14 02:16:11;;;;;;;2.40;2.20;;;;;;;22.64;49.27;99175.89;1814589;77;21086;-67
2022/05/14 02:18:38;;;;;;;1.80;1.70;;;;;;;22.63;49.28;99175.08;1825985;78;21628;-67
2022/05/14 02:21:05;;;;;;;1.67;1.57;;;;;;;22.62;49.26;99163.99;1826026;78;21053;-68
2022/05/14 02:23:32;;;;;;;2.10;1.95;;;;;;;22.62;49.26;99162.64;1825931;78;20986;-69
2022/05/14 02:26:00;;;;;;;2.25;2.05;;;;;;;22.62;49.29;99160.45;1826030;78;20997;-67
2022/05/14 02:28:26;;;;;;;2.50;2.30;;;;;;;22.62;49.30;99161.80;1807718;78;21067;-67
2022/05/14 02:30:53;;;;;;;2.00;1.90;;;;;;;22.61;49.29;99159.64;1825938;78;20998;-67
2022/05/14 02:33:19;;;;;;;2.33;2.12;;;;;;;22.60;49.30;99159.89;1825350;78;21485;-67
2022/05/14 02:35:46;;;;;;;2.05;1.85;;;;;;;22.61;49.32;99162.89;1826069;78;21518;-68
2022/05/14 02:38:14;;;;;;;2.27;1.82;;;;;;;22.58;49.30;99162.34;1826139;78;21006;-68
2022/05/14 02:40:40;;;;;;;2.42;1.70;;;;;;;22.60;49.30;99157.19;1825897;78;22026;-67
2022/05/14 02:43:07;;;;;;;1.67;1.57;;;;;;;22.58;49.30;99154.22;1825906;78;20990;-67
2022/05/14 02:45:33;;;;;;;2.12;1.90;;;;;;;22.58;49.31;99150.16;1826036;78;21033;-68
2022/05/14 02:48:00;;;;;;;2.00;1.90;;;;;;;22.58;49.32;99154.77;1826116;78;20994;-68
2022/05/14 02:50:27;;;;;;;1.80;1.70;;;;;;;22.57;49.33;99151.77;1804770;78;21041;-67
2022/05/14 02:52:54;;;;;;;1.90;1.72;;;;;;;22.57;49.34;99152.58;1793774;79;21792;-68
2022/05/14 02:55:21;;;;;;;2.00;1.90;;;;;;;22.55;49.31;99146.61;1793535;80;21069;-67
2022/05/14 02:57:47;;;;;;;2.15;2.05;;;;;;;22.57;49.34;99149.06;1793558;80;21049;-67
2022/05/14 03:00:17;;;;;;;1.90;1.77;;;;;;;22.57;49.33;99149.06;1793608;80;21569;-67
2022/05/14 03:02:44;;;;;;;2.17;1.90;;;;;;;22.56;49.35;99142.00;1793821;79;21045;-68
2022/05/14 03:05:12;;;;;;;2.02;1.87;;;;;;;22.56;49.34;99144.71;1793672;80;21244;-69
2022/05/14 03:07:41;;;;;;;2.42;2.22;;;;;;;22.55;49.38;99153.38;1777211;79;21057;-67
2022/05/14 03:10:08;;;;;;;2.52;2.10;;;;;;;22.55;49.38;99152.02;1793670;79;21079;-68
2022/05/14 03:12:34;;;;;;;2.17;1.98;;;;;;;22.54;49.39;99157.17;1793745;80;21525;-67
2022/05/14 03:15:01;;;;;;;2.25;2.05;;;;;;;22.54;49.40;99164.45;1796188;78;21060;-68
2022/05/14 03:17:29;;;;;;;2.40;2.20;;;;;;;22.54;49.43;99160.40;1826202;78;21135;-67
2022/05/14 03:19:55;;;;;;;1.85;1.75;;;;;;;22.54;49.43;99160.40;1826126;78;21034;-67
2022/05/14 03:22:22;;;;;;;2.30;2.10;;;;;;;22.54;49.45;99162.59;1826337;78;21501;-69
2022/05/14 03:24:48;;;;;;;1.72;1.62;;;;;;;22.54;49.46;99163.11;1825239;78;21072;-68
2022/05/14 03:27:15;;;;;;;1.72;1.62;;;;;;;22.53;49.51;99173.13;1826354;78;21556;-67
2022/05/14 03:29:42;;;;;;;1.85;1.72;;;;;;;22.53;49.51;99179.89;1826126;78;21116;-67
2022/05/14 03:32:09;;;;;;;1.85;1.75;;;;;;;22.53;49.55;99182.59;1807820;78;21502;-68
2022/05/14 03:34:36;;;;;;;2.80;1.90;;;;;;;22.53;49.55;99173.67;1826180;78;21005;-68
2022/05/14 03:37:04;;;;;;;2.20;2.00;;;;;;;22.53;49.57;99162.30;1826133;78;20990;-68
2022/05/14 03:39:31;;;;;;;3.62;1.90;;;;;;;22.54;49.57;99155.82;1826108;78;20966;-67
2022/05/14 03:41:58;;;;;;;2.33;2.12;;;;;;;22.53;49.59;99156.89;1825039;78;21234;-68
2022/05/14 03:44:24;;;;;;;2.05;1.95;;;;;;;22.52;49.60;99145.80;1820644;78;21502;-67
2022/05/14 03:46:51;;;;;;;2.10;1.90;;;;;;;22.52;49.61;99143.09;1814657;78;21038;-68
2022/05/14 03:49:18;;;;;;;2.47;2.15;;;;;;;22.53;49.60;99141.19;1814590;78;20987;-67
2022/05/14 03:51:45;;;;;;;3.35;1.98;;;;;;;22.51;49.62;99138.73;1814648;79;21077;-68
2022/05/14 03:54:11;;;;;;;2.27;1.82;;;;;;;22.52;49.62;99137.68;1814791;79;21510;-67
2022/05/14 03:56:39;;;;;;;2.10;1.90;;;;;;;22.53;49.65;99138.48;1814678;78;21073;-68
2022/05/14 03:59:07;;;;;;;2.22;2.02;;;;;;;22.52;49.66;99137.68;1802326;79;21014;-67
2022/05/14 04:01:35;;;;;;;1.82;1.60;;;;;;;22.53;49.65;99145.25;1814518;79;21053;-67
2022/05/14 04:04:03;;;;;;;2.02;1.82;;;;;;;22.53;49.65;99154.17;1814595;79;21049;-68
2022/05/14 04:06:30;;;;;;;1.92;1.82;;;;;;;22.54;49.66;99165.81;1814531;79;22068;-68
2022/05/14 04:08:56;;;;;;;2.08;1.98;;;;;;;22.53;49.66;99167.71;1814555;79;21018;-68
2022/05/14 04:11:23;;;;;;;1.77;1.67;;;;;;;22.53;49.67;99160.14;1814639;79;21463;-67
2022/05/14 04:13:50;;;;;;;1.90;1.80;;;;;;;22.53;49.66;99145.25;1814320;78;21070;-67
2022/05/14 04:16:17;;;;;;;2.08;1.70;;;;;;;22.53;49.72;99148.77;1813704;79;21049;-68
2022/05/14 04:18:43;;;;;;;1.92;1.60;;;;;;;22.53;49.70;99143.90;1803464;79;21360;-67
2022/05/14 04:21:11;;;;;;;2.02;1.92;;;;;;;22.52;49.72;99136.33;1814687;79;21034;-67
2022/05/14 04:23:37;;;;;;;2.25;2.05;;;;;;;22.54;49.71;99139.58;1803381;79;21526;-67
2022/05/14 04:26:04;;;;;;;2.27;2.08;;;;;;;22.54;49.74;99130.11;1814741;78;21080;-66
2022/05/14 04:28:32;;;;;;;2.12;1.85;;;;;;;22.55;49.73;99134.98;1814585;78;21509;-67
2022/05/14 04:30:59;;;;;;;2.17;1.80;;;;;;;22.55;49.75;99129.56;1813631;79;21068;-68
2022/05/14 04:33:27;;;;;;;2.02;1.80;;;;;;;22.55;49.75;99130.92;1814590;79;21005;-68
2022/05/14 04:35:54;;;;;;;2.10;1.80;;;;;;;22.56;49.74;99134.72;1814532;79;22086;-68
2022/05/14 04:38:21;;;;;;;2.22;2.00;;;;;;;22.56;49.77;99136.59;1814751;78;21061;-67
2022/05/14 04:40:48;;;;;;;2.30;2.10;;;;;;;22.57;49.72;99136.34;1814563;79;21522;-67
2022/05/14 04:43:15;;;;;;;2.20;2.00;;;;;;;22.53;49.77;99128.47;1814535;78;21131;-68
2022/05/14 04:45:43;;;;;;;2.35;2.15;;;;;;;22.59;49.79;99130.66;1814404;78;21558;-68
2022/05/14 04:48:11;;;;;;;2.08;1.87;;;;;;;22.60;49.76;99131.47;1813375;78;21029;-67
2022/05/14 04:50:39;;;;;;;2.42;1.90;;;;;;;22.61;49.75;99130.41;1814467;79;21518;-68
2022/05/14 04:53:06;;;;;;;2.10;2.00;;;;;;;22.62;49.78;99129.31;1814688;78;21017;-67
2022/05/14 04:55:33;;;;;;;2.05;1.92;;;;;;;22.63;49.78;99128.25;1814538;78;21235;-68
2022/05/14 04:57:59;;;;;;;1.95;1.85;;;;;;;22.63;49.79;99135.02;1814588;78;20995;-68
2022/05/14 05:00:27;;;;;;;2.10;1.90;;;;;;;22.64;49.79;99140.70;1814572;78;21069;-68
2022/05/14 05:05:40;;;;;;;2.15;1.95;;;;;;;22.66;49.83;99165.64;1813369;79;20994;-67
2022/05/14 05:08:07;;;;;;;2.37;2.17;;;;;;;22.67;49.84;99164.55;1814694;78;21231;-67
2022/05/14 05:10:34;;;;;;;2.25;1.95;;;;;;;22.67;49.85;99145.05;1814432;78;21009;-67
2022/05/14 05:13:01;;;;;;;2.30;2.10;;;;;;;22.68;49.87;99136.41;1814631;78;20987;-68
2022/05/14 05:15:28;;;;;;;2.20;1.60;;;;;;;22.69;49.86;99139.37;1814657;79;21474;-68
2022/05/14 05:17:55;;;;;;;2.20;2.00;;;;;;;22.70;49.87;99150.50;1814521;79;21022;-67
2022/05/14 05:20:21;;;;;;;2.45;2.25;;;;;;;22.71;49.88;99148.05;1814617;78;21226;-68
2022/05/14 05:22:48;;;;;;;1.77;1.67;;;;;;;22.71;49.87;99137.22;1813501;79;21502;-68
2022/05/14 05:25:15;;;;;;;2.15;1.92;;;;;;;22.74;49.87;99139.42;1814512;79;21061;-68
2022/05/14 05:27:42;;;;;;;2.22;2.05;;;;;;;22.75;49.88;99139.68;1814453;79;21581;-68
2022/05/14 05:30:09;;;;;;;2.10;1.80;;;;;;;22.75;49.84;99135.62;1814513;78;21111;-67
2022/05/14 05:32:36;;;;;;;2.05;1.85;;;;;;;22.77;49.84;99143.77;1814526;79;21125;-67
2022/05/14 05:35:03;;;;;;;2.00;1.90;;;;;;;22.80;49.90;99153.80;1814561;79;21010;-68
2022/05/14 05:37:30;;;;;;;1.92;1.82;;;;;;;22.80;50.11;99146.48;1814526;79;21061;-68
2022/05/14 05:39:56;;;;;;;2.15;1.95;;;;;;;22.81;50.07;99152.16;1813300;79;21009;-68
2022/05/14 05:42:23;;;;;;;2.60;2.40;;;;;;;22.83;50.22;99151.39;1814575;79;21002;-68
2022/05/14 05:44:49;;;;;;;1.82;1.72;;;;;;;22.84;50.30;99157.06;1818955;78;21243;-69
2022/05/14 05:47:16;;;;;;;1.98;1.87;;;;;;;22.85;50.34;99157.35;1825936;78;21021;-67
2022/05/14 05:49:43;;;;;;;2.37;2.08;;;;;;;22.87;50.28;99151.65;1826026;78;21065;-67
2022/05/14 05:52:11;;;;;;;2.40;2.20;;;;;;;22.88;50.31;99160.06;1826032;78;20979;-67
2022/05/14 05:57:34;;;;;;;1.98;1.87;;;;;;;22.89;50.34;99156.27;1805823;78;22108;-68
2022/05/14 06:00:01;;;;;;;1.98;1.77;;;;;;;22.90;50.40;99154.66;1793681;79;21502;-67
2022/05/14 06:02:29;;;;;;;2.10;1.98;;;;;;;22.91;50.43;99148.72;1792491;79;21567;-68
2022/05/14 06:04:56;;;;;;;2.10;2.00;;;;;;;22.92;50.49;99144.91;1793483;80;21076;-68
2022/05/14 06:07:23;;;;;;;2.22;2.02;;;;;;;22.92;50.51;99147.08;1793649;80;20997;-68
2022/05/14 06:09:49;;;;;;;2.27;2.08;;;;;;;22.93;50.59;99146.02;1793496;80;21785;-68
2022/05/14 06:12:16;;;;;;;2.85;2.50;;;;;;;22.94;50.69;99151.69;1793459;80;21048;-67
2022/05/14 06:14:44;;;;;;;2.52;2.00;;;;;;;22.95;50.68;99149.81;1794853;78;21028;-68
2022/05/14 06:17:11;;;;;;;2.30;2.00;;;;;;;22.96;50.76;99146.82;1824954;78;21553;-67
2022/05/14 06:19:37;;;;;;;2.87;2.33;;;;;;;22.97;50.77;99155.78;1826033;78;21044;-68
2022/05/14 06:22:04;;;;;;;3.42;2.83;;;;;;;22.97;50.77;99149.81;1825993;78;21179;-68
2022/05/14 06:24:31;;;;;;;2.33;2.12;;;;;;;22.99;50.87;99148.20;1825855;78;21041;-67
2022/05/14 06:26:58;;;;;;;3.25;2.95;;;;;;;23.00;50.86;99145.75;1826067;78;21017;-67
2022/05/14 06:29:24;;;;;;;2.67;2.10;;;;;;;23.02;50.89;99146.85;1826075;78;21489;-67
2022/05/14 06:31:51;;;;;;;1.80;1.70;;;;;;;23.02;50.91;99146.85;1825115;78;21076;-67
2022/05/14 06:34:17;;;;;;;3.12;2.83;;;;;;;23.03;50.99;99151.23;1826005;78;21131;-68
2022/05/14 06:36:44;;;;;;;2.42;2.20;;;;;;;23.04;50.98;99148.23;1825923;78;21029;-68
2022/05/14 06:39:10;;;;;;;2.30;2.10;;;;;;;23.04;51.06;99144.17;1826188;78;21018;-67
2022/05/14 06:41:38;;;;;;;2.35;2.15;;;;;;;23.06;51.14;99146.08;1826039;78;21521;-68
2022/05/14 06:44:05;;;;;;;2.55;2.35;;;;;;;23.08;51.21;99151.23;1825938;78;21049;-67
2022/05/14 06:46:32;;;;;;;3.02;2.47;;;;;;;23.08;51.17;99162.91;1814756;78;22044;-67
2022/05/14 06:48:58;;;;;;;2.35;2.15;;;;;;;23.09;51.19;99167.78;1813215;79;21031;-68
2022/05/14 06:51:26;;;;;;;2.67;2.47;;;;;;;23.10;51.21;99174.30;1814729;79;20990;-68
2022/05/14 06:53:54;;;;;;;2.70;2.50;;;;;;;23.11;51.20;99168.33;1803488;79;21002;-68
2022/05/14 06:56:20;;;;;;;3.47;2.25;;;;;;;23.12;51.26;99170.78;1814563;79;21562;-67
2022/05/14 07:00:22;;;;;;;2.40;2.20;;;;;;;23.18;51.41;99168.07;1889356;76;22513;-68
2022/05/14 07:02:49;;;;;;;3.50;2.70;;;;;;;23.16;51.57;99181.36;1860308;77;21036;-68
2022/05/14 07:08:00;;;;;;;2.80;2.47;;;;;;;23.20;51.89;99180.30;1826564;78;21001;-67
2022/05/14 07:10:27;;;;;;;2.33;2.12;;;;;;;23.22;51.91;99181.36;1826581;78;20961;-68
2022/05/14 07:12:55;;;;;;;2.95;2.40;;;;;;;23.21;51.89;99179.20;1826438;78;21198;-68
2022/05/14 07:15:22;;;;;;;2.30;2.10;;;;;;;23.23;52.11;99181.09;1826247;77;21053;-68
2022/05/14 07:17:49;;;;;;;2.98;2.77;;;;;;;23.24;52.15;99185.45;1824822;78;21090;-69
2022/05/14 07:20:16;;;;;;;2.60;2.40;;;;;;;23.25;52.04;99191.13;1824784;78;20894;-69
2022/05/14 07:22:42;;;;;;;2.55;2.35;;;;;;;23.27;51.93;99190.88;1853572;76;20949;-68
2022/05/14 07:25:09;;;;;;;3.00;2.70;;;;;;;23.28;51.94;99189.26;1860156;77;21076;-69
2022/05/14 07:27:36;;;;;;;2.77;2.50;;;;;;;23.30;51.87;99200.65;1860121;77;21001;-68
2022/05/14 07:30:03;;;;;;;2.90;2.70;;;;;;;23.32;51.92;99199.84;1860154;77;21123;-67
2022/05/14 07:32:30;;;;;;;3.05;2.75;;;;;;;23.34;51.97;99203.65;1860026;77;21056;-68
2022/05/14 07:34:57;;;;;;;2.75;2.50;;;;;;;23.35;51.96;99208.81;1860111;77;21017;-67
2022/05/14 07:37:30;;;;;;;2.90;2.70;;;;;;;23.37;51.79;99216.65;1860240;77;20989;-67
2022/05/14 07:40:01;;;;;;;2.95;2.62;;;;;;;23.39;51.83;99217.75;1854598;76;21033;-68
2022/05/14 07:42:45;;;;;;;3.50;2.92;;;;;;;23.40;51.70;99215.33;1852091;77;21097;-67
2022/05/14 07:45:14;;;;;;;3.10;2.60;;;;;;;23.41;51.70;99216.42;1852440;77;20970;-68
2022/05/14 07:47:41;;;;;;;3.05;2.60;;;;;;;23.43;51.71;99218.84;1851951;77;21513;-68
2022/05/14 07:50:09;;;;;;;3.20;2.90;;;;;;;23.44;51.53;99213.71;1852516;77;20998;-68
2022/05/14 07:52:36;;;;;;;2.85;2.65;;;;;;;23.46;51.49;99221.03;1852119;77;20966;-68
2022/05/14 07:55:04;;;;;;;3.83;3.05;;;;;;;23.47;51.54;99224.84;1853412;76;21092;-67
2022/05/14 07:57:31;;;;;;;2.87;2.67;;;;;;;23.48;51.58;99222.94;1852359;77;21022;-69
2022/05/14 07:59:58;;;;;;;3.10;2.80;;;;;;;23.50;51.44;99223.48;1847868;77;21152;-68
2022/05/14 08:02:31;;;;;;;3.00;2.70;;;;;;;23.51;51.39;99223.77;1846417;77;20994;-68
2022/05/14 08:04:56;;;;;;;4.65;3.37;;;;;;;23.52;51.43;99227.55;1846450;77;21540;-68
2022/05/14 08:07:23;;;;;;;3.15;2.52;;;;;;;23.54;51.38;99231.36;1846481;77;21785;-68
2022/05/14 08:09:49;;;;;;;3.08;2.42;;;;;;;23.53;51.36;99226.48;1846234;77;21013;-67
2022/05/14 08:12:16;;;;;;;3.52;3.22;;;;;;;23.55;51.30;99229.74;1848449;76;21071;-66
2022/05/14 08:14:42;;;;;;;3.05;2.80;;;;;;;23.57;51.36;99223.25;1856934;77;21579;-67
2022/05/14 08:17:09;;;;;;;3.37;2.92;;;;;;;23.59;51.22;99219.73;1856870;77;21006;-68
2022/05/14 08:19:36;;;;;;;3.65;2.90;;;;;;;23.58;51.10;99228.38;1856728;77;21085;-68
2022/05/14 08:24:49;;;;;;;3.33;2.98;;;;;;;23.61;50.94;99225.70;1856829;77;21025;-69
2022/05/14 08:27:16;;;;;;;3.10;2.80;;;;;;;23.62;50.90;99226.77;1856911;77;20988;-67
2022/05/14 08:29:47;;;;;;;3.77;2.98;;;;;;;23.62;50.91;99225.41;1853691;76;20998;-69
2022/05/14 08:32:18;;;;;;;2.85;2.42;;;;;;;23.63;50.94;99231.67;1845774;77;21070;-68
2022/05/14 08:34:45;;;;;;;3.20;2.90;;;;;;;23.63;50.85;99230.31;1846042;77;21060;-69
2022/05/14 08:37:12;;;;;;;3.92;3.17;;;;;;;23.63;50.96;99232.48;1845749;77;21078;-68
2022/05/14 08:39:39;;;;;;;3.12;2.83;;;;;;;23.64;50.99;99238.19;1845767;77;21010;-68
2022/05/14 08:42:08;;;;;;;5.65;3.17;;;;;;;23.65;50.98;99243.87;1845903;77;21537;-69
2022/05/14 08:44:36;;;;;;;3.35;3.05;;;;;;;23.65;51.07;99247.94;1845819;77;21294;-69
2022/05/14 08:47:06;;;;;;;3.50;3.20;;;;;;;23.67;51.08;99247.67;1847728;76;21328;-70
2022/05/14 08:49:41;;;;;;;4.20;3.30;;;;;;;23.66;51.17;99249.58;1846068;77;21033;-69
2022/05/14 08:52:12;;;;;;;3.42;3.12;;;;;;;23.66;51.23;99241.97;1845775;77;22018;-70
2022/05/14 08:54:41;;;;;;;3.47;3.17;;;;;;;23.66;51.25;99244.67;1816299;77;21084;-68
2022/05/14 08:57:33;;;;;;;3.02;2.72;;;;;;;23.66;51.32;99242.80;1845798;77;21136;-68
2022/05/14 09:00:00;;;;;;;4.50;3.55;;;;;;;23.66;51.36;99239.25;1842145;77;20987;-68
2022/05/14 09:02:35;;;;;;;3.45;3.15;;;;;;;23.66;51.40;99241.45;1839948;78;21486;-68
2022/05/14 09:05:11;;;;;;;3.50;3.17;;;;;;;23.66;51.38;99248.23;1841093;76;21470;-68
2022/05/14 09:07:38;;;;;;;3.72;2.83;;;;;;;23.66;51.36;99246.87;1829606;78;21048;-69
2022/05/14 09:10:09;;;;;;;3.40;3.10;;;;;;;23.66;51.32;99243.32;1839837;78;21298;-68
2022/05/14 09:12:37;;;;;;;2.90;2.70;;;;;;;23.66;51.30;99246.03;1840218;78;20983;-68
2022/05/14 09:15:10;;;;;;;3.40;3.05;;;;;;;23.66;51.31;99245.52;1819576;77;21041;-68
2022/05/14 09:17:36;;;;;;;3.47;3.17;;;;;;;23.66;51.31;99244.67;1847052;77;21029;-68
2022/05/14 09:20:07;;;;;;;3.45;3.15;;;;;;;23.66;51.32;99245.52;1847938;76;21006;-68
2022/05/14 09:22:44;;;;;;;3.50;3.02;;;;;;;23.67;51.31;99241.70;1839860;78;21848;-67
2022/05/14 09:25:22;;;;;;;3.92;3.05;;;;;;;23.68;51.30;99239.28;1840111;78;21479;-67
2022/05/14 09:28:07;;;;;;;3.40;3.10;;;;;;;23.68;51.30;99240.64;1840135;78;21064;-68
2022/05/14 09:30:45;;;;;;;;;;;;;;;23.68;51.28;99235.22;1842859;78;21030;-68
2022/05/14 09:33:35;;;;;;;2.65;2.45;;;;;;;23.69;51.32;99231.95;1840149;78;20167;-68
2022/05/14 09:36:04;;;;;;;3.65;3.35;;;;;;;23.69;51.26;99231.95;1839119;77;21218;-67
2022/05/14 09:38:31;;;;;;;3.98;2.95;;;;;;;23.68;51.22;99231.15;1840910;76;20993;-68
2022/05/14 09:41:18;;;;;;;3.40;3.10;;;;;;;23.70;51.25;99233.56;1839730;78;20998;-68
2022/05/14 09:43:45;;;;;;;3.70;3.25;;;;;;;23.70;51.21;99235.76;1839806;78;21068;-68
2022/05/14 09:46:24;;;;;;;3.58;3.27;;;;;;;23.70;51.21;99234.41;1839847;78;21138;-67
2022/05/14 09:48:54;;;;;;;3.47;2.85;;;;;;;23.72;51.26;99236.83;1820742;78;21256;-68
2022/05/14 09:51:36;;;;;;;3.50;3.20;;;;;;;23.73;51.32;99231.69;1840143;78;20974;-67
2022/05/14 09:54:27;;;;;;;4.05;3.70;;;;;;;23.74;51.29;99236.85;1841286;76;21667;-68
2022/05/14 09:57:19;;;;;;;4.33;2.90;;;;;;;23.75;51.31;99237.11;1847752;77;20967;-68
2022/05/14 10:00:14;;;;;;;3.40;3.10;;;;;;;23.76;51.29;99225.75;1847845;77;20982;-68
2022/05/14 10:03:06;;;;;;;4.05;2.90;;;;;;;23.80;51.08;99228.74;1786709;77;21147;-67
2022/05/14 10:06:05;;;;;;;3.70;3.25;;;;;;;23.83;51.07;99224.15;1848072;77;21479;-68
2022/05/14 10:09:15;;;;;;;3.22;2.92;;;;;;;23.86;50.63;99220.91;1847567;77;21639;-69
2022/05/14 10:11:46;;;;;;;3.25;2.95;;;;;;;23.88;50.49;99215.48;1846036;76;21060;-68
2022/05/14 10:14:33;;;;;;;3.42;3.10;;;;;;;23.90;50.64;99213.86;1840151;77;21106;-67
2022/05/14 10:17:43;;;;;;;3.20;2.95;;;;;;;23.92;50.77;99215.77;1846669;77;21241;-67
2022/05/14 10:20:30;;;;;;;3.20;2.90;;;;;;;23.94;50.88;99213.59;1847921;77;21444;-67
2022/05/14 10:29:20;;;;;;;3.27;2.98;;;;;;;24.02;50.45;99225.81;1858552;76;21459;-68
2022/05/14 10:32:09;;;;;;;3.30;3.00;;;;;;;24.04;50.44;99223.09;1874065;76;21124;-68
2022/05/14 10:34:57;;;;;;;3.45;3.15;;;;;;;24.10;50.35;99227.98;1786538;79;21046;-68
2022/05/14 10:37:51;;;;;;;3.15;2.85;;;;;;;24.12;50.33;99227.17;1853162;77;21494;-67
2022/05/14 10:40:35;;;;;;;3.50;3.20;;;;;;;24.16;50.43;99231.52;1853027;77;21545;-67
2022/05/14 10:43:49;;;;;;;3.12;2.83;;;;;;;24.20;50.41;99224.47;1853722;77;21448;-68
2022/05/14 10:46:22;;;;;;;3.37;3.08;;;;;;;24.24;50.33;99220.96;1864248;76;21166;-68
2022/05/14 10:49:20;;;;;;;3.15;2.67;;;;;;;24.26;50.40;99217.44;1874309;76;20987;-68
2022/05/14 10:51:50;;;;;;;3.70;2.60;;;;;;;24.28;50.38;99212.55;1874026;76;21205;-68
2022/05/14 10:54:20;;;;;;;3.65;3.35;;;;;;;24.31;50.57;99209.82;1874295;76;21033;-67
2022/05/14 10:56:59;;;;;;;3.22;2.92;;;;;;;24.32;50.54;99214.17;1873946;76;21105;-68
2022/05/14 10:59:40;;;;;;;3.20;2.90;;;;;;;24.34;50.46;99218.23;1872973;76;21208;-67
2022/05/14 11:02:28;;;;;;;3.55;3.10;;;;;;;24.37;50.53;99212.80;1872033;76;21061;-67
2022/05/14 11:04:55;;;;;;;3.17;2.80;;;;;;;24.38;50.64;99204.94;1874068;76;21053;-67
2022/05/14 11:07:35;;;;;;;3.42;3.12;;;;;;;24.40;50.70;99210.10;1874060;76;21014;-68
2022/05/14 11:10:17;;;;;;;2.90;2.70;;;;;;;24.40;50.76;99213.63;1874482;76;20994;-68
2022/05/14 11:12:44;;;;;;;2.98;2.77;;;;;;;24.41;50.73;99214.43;1873929;76;21119;-68
2022/05/14 11:15:29;;;;;;;3.37;2.98;;;;;;;24.41;50.78;99205.73;1870175;76;21037;-67
2022/05/14 11:18:13;;;;;;;3.30;3.00;;;;;;;24.42;50.83;99212.81;1847836;77;21088;-67
2022/05/14 11:21:00;;;;;;;3.00;2.70;;;;;;;24.42;50.72;99214.16;1866165;76;21017;-68
2022/05/14 11:23:27;;;;;;;2.75;2.50;;;;;;;24.44;50.70;99209.28;1797317;79;20995;-68
2022/05/14 11:26:10;;;;;;;2.77;2.58;;;;;;;24.46;50.30;99205.74;1798346;79;21142;-67
2022/05/14 11:28:36;;;;;;;3.40;2.70;;;;;;;24.49;50.15;99201.14;1797544;79;21062;-68
2022/05/14 11:31:24;;;;;;;3.00;2.80;;;;;;;24.53;50.01;99202.77;1797258;79;21042;-67
2022/05/14 11:33:51;;;;;;;2.77;2.58;;;;;;;24.56;49.97;99212.29;1798312;79;21038;-68
2022/05/14 11:36:28;;;;;;;3.40;3.10;;;;;;;24.58;49.95;99205.48;1872759;76;21003;-68
2022/05/14 11:39:25;;;;;;;3.20;2.80;;;;;;;24.60;50.02;99215.53;1873938;76;21128;-68
2022/05/14 11:41:55;;;;;;;3.20;2.65;;;;;;;24.60;49.98;99213.36;1851494;76;21025;-68
2022/05/14 11:44:42;;;;;;;3.15;2.85;;;;;;;24.61;50.10;99225.84;1872166;76;20979;-68
2022/05/14 11:47:33;;;;;;;2.80;2.58;;;;;;;24.59;50.32;99224.78;1836188;76;20990;-68
2022/05/14 11:50:00;;;;;;;2.77;2.58;;;;;;;24.59;50.51;99226.66;1795923;79;21001;-68
2022/05/14 11:52:37;;;;;;;3.17;2.87;;;;;;;24.58;50.63;99231.28;1802967;79;21133;-68
2022/05/14 11:55:22;;;;;;;3.00;2.80;;;;;;;24.58;50.70;99234.55;1814932;77;20990;-68
2022/05/14 11:58:04;;;;;;;2.77;2.58;;;;;;;24.57;50.75;99227.48;1814043;78;21064;-68
2022/05/14 12:00:32;;;;;;;3.55;3.25;;;;;;;24.56;50.79;99236.17;1810031;78;21096;-67
2022/05/14 12:03:23;;;;;;;3.10;2.87;;;;;;;24.56;50.78;99232.66;1804303;79;21025;-67
2022/05/14 12:05:59;;;;;;;2.90;2.67;;;;;;;24.55;50.77;99229.13;1804336;79;21203;-67
2022/05/14 12:08:52;;;;;;;2.98;2.67;;;;;;;24.55;50.78;99229.66;1804679;79;21034;-68
2022/05/14 12:11:35;;;;;;;;;;;;;;;24.54;50.74;99235.63;1830460;77;21448;-68
2022/05/14 12:14:09;;;;;;;2.90;2.70;;;;;;;24.52;50.78;99235.91;1831789;77;20136;-67